createdAt,value
2022-08-11T00:01:14.107Z,25.39
2022-08-11T00:03:47.628Z,25.38
2022-08-11T00:06:17.334Z,25.39
2022-08-11T00:08:45.996Z,25.38
2022-08-11T00:11:17.303Z,25.39
2022-08-11T00:13:47.563Z,25.37
2022-08-11T00:16:19.797Z,25.33
2022-08-11T00:18:50.352Z,25.33
2022-08-11T00:21:19.264Z,25.32
2022-08-11T00:24:08.674Z,25.32
2022-08-11T00:26:37.641Z,25.32
2022-08-11T00:29:10.203Z,25.31
2022-08-11T00:31:40.126Z,25.32
2022-08-11T00:34:12.649Z,25.31
2022-08-11T00:36:47.039Z,25.29
2022-08-11T00:39:16.353Z,25.29
2022-08-11T00:41:48.679Z,25.32
2022-08-11T00:44:39.278Z,25.31
2022-08-11T00:47:20.164Z,25.33
2022-08-11T00:50:02.669Z,25.34
2022-08-11T00:53:00.968Z,25.34
2022-08-11T00:55:59.546Z,25.33
2022-08-11T00:59:35.384Z,25.33
2022-08-11T01:02:18.760Z,25.32
2022-08-11T01:05:36.799Z,25.33
2022-08-11T01:08:43.668Z,25.32
2022-08-11T01:11:55.758Z,25.31
2022-08-11T01:14:52.123Z,25.33
2022-08-11T01:18:12.052Z,25.33
2022-08-11T01:21:10.424Z,25.31
2022-08-11T01:24:46.719Z,25.31
2022-08-11T01:27:41.743Z,25.31
2022-08-11T01:31:23.926Z,25.31
2022-08-11T01:34:55.607Z,25.31
2022-08-11T01:38:15.023Z,25.32
2022-08-11T01:41:02.101Z,25.33
2022-08-11T01:44:41.291Z,25.33
2022-08-11T01:47:36.963Z,25.32
2022-08-11T01:50:13.832Z,25.30
2022-08-11T01:53:04.739Z,25.29
2022-08-11T01:55:38.939Z,25.30
2022-08-11T01:58:14.502Z,25.29
2022-08-11T02:00:52.430Z,25.32
2022-08-11T02:03:25.908Z,25.31
2022-08-11T02:06:01.645Z,25.31
2022-08-11T02:08:44.762Z,25.30
2022-08-11T02:11:31.237Z,25.31
2022-08-11T02:14:20.897Z,25.28
2022-08-11T02:17:15.958Z,25.31
2022-08-11T02:20:10.887Z,25.32
2022-08-11T02:23:05.435Z,25.32
2022-08-11T02:25:39.037Z,25.31
2022-08-11T02:28:11.700Z,25.31
2022-08-11T02:31:15.579Z,25.31
2022-08-11T02:34:18.850Z,25.29
2022-08-11T02:36:57.161Z,25.31
2022-08-11T02:39:26.008Z,25.30
2022-08-11T02:42:35.143Z,25.28
2022-08-11T02:45:17.569Z,25.28
2022-08-11T02:48:07.164Z,25.30
2022-08-11T02:50:39.211Z,25.27
2022-08-11T02:53:12.509Z,25.27
2022-08-11T02:55:57.147Z,25.30
2022-08-11T02:59:08.859Z,25.28
2022-08-11T03:01:43.545Z,25.23
2022-08-11T03:04:15.871Z,25.18
2022-08-11T03:07:02.470Z,25.18
2022-08-11T03:09:45.287Z,25.18
2022-08-11T03:12:37.163Z,25.20
2022-08-11T03:15:29.564Z,25.17
2022-08-11T03:18:04.809Z,25.17
2022-08-11T03:20:40.076Z,25.19
2022-08-11T03:23:30.441Z,25.22
2022-08-11T03:26:03.780Z,25.23
2022-08-11T03:28:35.412Z,25.24
2022-08-11T03:31:18.628Z,25.24
2022-08-11T03:34:08.035Z,25.22
2022-08-11T03:37:17.188Z,25.21
2022-08-11T03:39:57.174Z,25.21
2022-08-11T03:42:30.838Z,25.22
2022-08-11T03:45:16.563Z,25.23
2022-08-11T03:48:05.977Z,25.20
2022-08-11T03:51:03.901Z,25.20
2022-08-11T03:53:57.473Z,25.20
2022-08-11T03:57:24.425Z,25.21
2022-08-11T04:00:17.834Z,25.22
2022-08-11T04:03:34.399Z,25.22
2022-08-11T04:06:43.439Z,25.20
2022-08-11T04:09:57.591Z,25.20
2022-08-11T04:13:00.987Z,25.22
2022-08-11T04:16:13.066Z,25.21
2022-08-11T04:19:37.602Z,25.22
2022-08-11T04:22:24.032Z,25.22
2022-08-11T04:25:32.084Z,25.24
2022-08-11T04:28:31.886Z,25.24
2022-08-11T04:31:12.308Z,25.25
2022-08-11T04:34:08.101Z,25.25
2022-08-11T04:37:12.142Z,25.22
2022-08-11T04:40:07.664Z,25.23
2022-08-11T04:43:25.117Z,25.23
2022-08-11T04:46:54.976Z,25.23
2022-08-11T04:50:11.618Z,25.25
2022-08-11T04:53:27.761Z,25.24
2022-08-11T04:56:28.418Z,25.25
2022-08-11T04:59:59.104Z,25.25
2022-08-11T05:03:04.921Z,25.25
2022-08-11T05:05:56.487Z,25.26
2022-08-11T05:09:11.721Z,25.28
2022-08-11T05:12:30.145Z,25.35
2022-08-11T05:15:16.742Z,25.43
2022-08-11T05:18:13.460Z,25.42
2022-08-11T05:21:11.437Z,25.41
2022-08-11T05:24:02.496Z,25.43
2022-08-11T05:26:50.005Z,25.29
2022-08-11T05:29:55.036Z,25.39
2022-08-11T05:32:41.002Z,25.44
2022-08-11T05:35:10.069Z,25.44
2022-08-11T05:38:02.741Z,25.44
2022-08-11T05:40:51.242Z,25.44
2022-08-11T05:44:20.532Z,25.50
2022-08-11T05:46:47.309Z,25.53
2022-08-11T05:49:33.660Z,25.57
2022-08-11T05:52:19.635Z,25.53
2022-08-11T05:55:07.567Z,25.53
2022-08-11T05:57:51.643Z,25.55
2022-08-11T06:00:24.338Z,25.56
2022-08-11T06:02:55.506Z,25.51
2022-08-11T06:05:25.210Z,25.48
2022-08-11T06:07:55.432Z,25.48
2022-08-11T06:10:28.754Z,25.53
2022-08-11T06:12:57.506Z,25.51
2022-08-11T06:15:27.706Z,25.46
2022-08-11T06:17:56.470Z,25.45
2022-08-11T06:20:25.680Z,25.52
2022-08-11T06:23:05.277Z,25.68
2022-08-11T06:25:36.011Z,25.74
2022-08-11T06:28:07.600Z,25.59
2022-08-11T06:30:42.684Z,25.56
2022-08-11T06:33:14.399Z,25.55
2022-08-11T06:35:56.470Z,25.51
2022-08-11T06:38:50.687Z,25.58
2022-08-11T06:41:34.485Z,25.66
2022-08-11T06:44:16.805Z,25.63
2022-08-11T06:46:51.023Z,25.51
2022-08-11T06:49:38.125Z,25.51
2022-08-11T06:52:12.847Z,25.52
2022-08-11T06:55:06.685Z,25.72
2022-08-11T06:57:52.683Z,25.70
2022-08-11T07:00:30.439Z,25.55
2022-08-11T07:03:09.541Z,25.69
2022-08-11T07:05:46.546Z,25.77
2022-08-11T07:09:04.294Z,25.70
2022-08-11T07:12:21.638Z,25.54
2022-08-11T07:15:10.240Z,25.57
2022-08-11T07:17:43.920Z,25.63
2022-08-11T07:20:31.116Z,25.60
2022-08-11T07:23:18.419Z,25.72
2022-08-11T07:26:07.973Z,25.83
2022-08-11T07:28:53.928Z,25.72
2022-08-11T07:31:29.213Z,25.70
2022-08-11T07:34:11.128Z,25.79
2022-08-11T07:36:48.561Z,25.84
2022-08-11T07:39:21.699Z,25.68
2022-08-11T07:41:51.026Z,25.88
2022-08-11T07:44:19.651Z,25.94
2022-08-11T07:47:07.602Z,25.97
2022-08-11T07:49:56.690Z,25.91
2022-08-11T07:52:34.113Z,25.99
2022-08-11T07:55:19.650Z,25.86
2022-08-11T07:58:15.136Z,25.81
2022-08-11T08:01:10.704Z,25.86
2022-08-11T08:04:08.575Z,25.93
2022-08-11T08:06:54.547Z,25.92
2022-08-11T08:09:41.904Z,25.88
2022-08-11T08:12:29.312Z,25.76
2022-08-11T08:15:15.438Z,25.67
2022-08-11T08:18:09.248Z,25.92
2022-08-11T08:20:41.953Z,25.66
2022-08-11T08:23:10.712Z,25.63
2022-08-11T08:25:41.862Z,25.68
2022-08-11T08:28:14.169Z,25.86
2022-08-11T08:30:48.228Z,25.90
2022-08-11T08:33:21.049Z,25.87
2022-08-11T08:35:56.173Z,25.86
2022-08-11T08:38:25.356Z,25.77
2022-08-11T08:40:56.582Z,25.78
2022-08-11T08:43:25.200Z,25.63
2022-08-11T08:45:55.738Z,25.51
2022-08-11T08:48:24.270Z,25.53
2022-08-11T08:51:13.436Z,25.59
2022-08-11T08:53:52.375Z,25.64
2022-08-11T08:56:28.422Z,25.69
2022-08-11T08:58:57.059Z,25.67
2022-08-11T09:01:25.656Z,25.62
2022-08-11T09:04:05.182Z,25.60
2022-08-11T09:06:40.096Z,25.46
2022-08-11T09:09:09.394Z,25.65
2022-08-11T09:11:53.503Z,25.83
2022-08-11T09:14:23.432Z,25.78
2022-08-11T09:16:52.464Z,25.67
2022-08-11T09:19:22.316Z,25.64
2022-08-11T09:22:12.685Z,25.93
2022-08-11T09:24:58.825Z,25.73
2022-08-11T09:27:28.673Z,25.91
2022-08-11T09:29:57.294Z,25.93
2022-08-11T09:32:26.668Z,25.86
2022-08-11T09:34:55.436Z,25.82
2022-08-11T09:37:54.729Z,25.96
2022-08-11T09:40:30.865Z,25.83
2022-08-11T09:43:33.069Z,25.74
2022-08-11T09:46:01.601Z,25.63
2022-08-11T09:48:33.454Z,25.55
2022-08-11T09:51:02.326Z,25.63
2022-08-11T09:53:37.176Z,25.69
2022-08-11T09:56:22.689Z,25.66
2022-08-11T09:58:52.488Z,25.64
2022-08-11T10:01:28.242Z,25.74
2022-08-11T10:04:02.612Z,25.85
2022-08-11T10:06:54.073Z,25.78
2022-08-11T10:09:25.524Z,25.67
2022-08-11T10:11:58.364Z,25.65
2022-08-11T10:14:46.629Z,25.79
2022-08-11T10:17:15.751Z,25.72
2022-08-11T10:19:44.833Z,25.66
2022-08-11T10:22:50.043Z,25.64
2022-08-11T10:25:36.362Z,25.55
2022-08-11T10:28:32.884Z,25.49
2022-08-11T10:31:13.784Z,25.73
2022-08-11T10:34:00.214Z,25.69
2022-08-11T10:36:29.166Z,25.69
2022-08-11T10:38:57.925Z,25.67
2022-08-11T10:42:06.902Z,25.68
2022-08-11T10:44:37.351Z,25.70
2022-08-11T10:47:25.315Z,25.76
2022-08-11T10:50:14.687Z,25.68
2022-08-11T10:53:00.908Z,25.64
2022-08-11T10:55:47.226Z,25.74
2022-08-11T10:58:33.431Z,25.59
2022-08-11T11:01:02.041Z,25.65
2022-08-11T11:03:34.591Z,25.71
2022-08-11T11:06:13.990Z,25.73
2022-08-11T11:09:04.573Z,25.77
2022-08-11T11:11:56.108Z,25.74
2022-08-11T11:14:45.805Z,25.82
2022-08-11T11:17:32.618Z,25.72
2022-08-11T11:20:02.612Z,25.59
2022-08-11T11:22:40.493Z,25.52
2022-08-11T11:25:19.099Z,25.50
2022-08-11T11:27:58.591Z,25.63
2022-08-11T11:30:29.784Z,25.64
2022-08-11T11:33:04.381Z,25.60
2022-08-11T11:35:40.228Z,25.60
2022-08-11T11:38:13.857Z,25.65
2022-08-11T11:40:43.666Z,25.70
2022-08-11T11:43:12.207Z,25.74
2022-08-11T11:45:41.765Z,25.70
2022-08-11T11:48:10.583Z,25.60
2022-08-11T11:50:40.377Z,25.56
2022-08-11T11:53:10.587Z,25.66
2022-08-11T11:55:39.123Z,25.60
2022-08-11T11:58:25.506Z,25.64
2022-08-11T12:01:11.744Z,25.59
2022-08-11T12:03:40.546Z,25.56
2022-08-11T12:06:14.351Z,25.65
2022-08-11T12:08:43.105Z,25.62
2022-08-11T12:11:30.510Z,25.76
2022-08-11T12:14:00.320Z,25.81
2022-08-11T12:16:32.981Z,25.73
2022-08-11T12:19:06.910Z,25.62
2022-08-11T12:21:37.398Z,25.55
2022-08-11T12:24:29.345Z,25.56
2022-08-11T12:27:17.702Z,25.56
2022-08-11T12:29:54.372Z,25.51
2022-08-11T12:32:24.686Z,25.66
2022-08-11T12:34:53.786Z,25.65
2022-08-11T12:37:30.431Z,25.72
2022-08-11T12:40:42.648Z,25.67
2022-08-11T12:43:38.958Z,25.84
2022-08-11T12:46:10.708Z,25.72
2022-08-11T12:49:03.495Z,25.71
2022-08-11T12:52:11.160Z,25.85
2022-08-11T12:54:59.754Z,25.80
2022-08-11T12:57:53.743Z,25.79
2022-08-11T13:00:40.070Z,25.71
2022-08-11T13:03:27.540Z,25.70
2022-08-11T13:05:58.854Z,25.68
2022-08-11T13:08:29.699Z,25.78
2022-08-11T13:11:18.879Z,25.70
2022-08-11T13:13:55.742Z,25.56
2022-08-11T13:16:27.761Z,25.54
2022-08-11T13:18:56.707Z,25.61
2022-08-11T13:21:25.130Z,25.66
2022-08-11T13:24:00.609Z,25.65
2022-08-11T13:26:49.347Z,25.59
2022-08-11T13:29:20.292Z,25.59
2022-08-11T13:31:48.879Z,25.59
2022-08-11T13:34:17.973Z,25.76
2022-08-11T13:36:46.569Z,25.68
2022-08-11T13:39:15.225Z,25.85
2022-08-11T13:41:47.996Z,25.72
2022-08-11T13:44:23.301Z,25.67
2022-08-11T13:46:55.557Z,25.61
2022-08-11T13:49:23.985Z,25.68
2022-08-11T13:51:53.803Z,25.77
2022-08-11T13:54:23.927Z,25.81
2022-08-11T13:56:55.303Z,25.88
2022-08-11T13:59:30.125Z,25.83
2022-08-11T14:02:22.167Z,25.75
2022-08-11T14:04:55.476Z,25.69
2022-08-11T14:07:26.346Z,25.69
2022-08-11T14:09:57.607Z,25.64
2022-08-11T14:12:46.699Z,25.64
2022-08-11T14:15:20.149Z,25.68
2022-08-11T14:17:52.361Z,25.71
2022-08-11T14:20:39.012Z,25.75
2022-08-11T14:23:11.085Z,25.79
2022-08-11T14:26:02.365Z,25.82
2022-08-11T14:28:40.207Z,25.76
2022-08-11T14:31:12.417Z,25.76
2022-08-11T14:34:00.045Z,25.77
2022-08-11T14:36:32.313Z,25.78
2022-08-11T14:39:02.069Z,25.74
2022-08-11T14:42:10.686Z,25.73
2022-08-11T14:44:57.518Z,25.69
2022-08-11T14:47:25.998Z,25.67
2022-08-11T14:50:06.518Z,25.67
2022-08-11T14:52:39.421Z,25.67
2022-08-11T14:55:26.826Z,25.68
2022-08-11T14:57:57.021Z,25.66
2022-08-11T15:00:27.497Z,25.67
2022-08-11T15:03:10.704Z,25.70
2022-08-11T15:06:00.216Z,25.67
2022-08-11T15:08:50.338Z,25.67
2022-08-11T15:11:37.495Z,25.70
2022-08-11T15:14:07.963Z,25.67
2022-08-11T15:16:55.855Z,25.65
2022-08-11T15:19:27.492Z,25.64
2022-08-11T15:22:13.283Z,25.69
2022-08-11T15:24:41.736Z,25.74
2022-08-11T15:27:36.553Z,25.76
2022-08-11T15:30:32.097Z,25.71
2022-08-11T15:33:23.485Z,25.68
2022-08-11T15:36:09.874Z,25.70
2022-08-11T15:38:38.970Z,25.70
2022-08-11T15:41:24.863Z,25.72
2022-08-11T15:44:11.811Z,25.71
2022-08-11T15:46:43.557Z,25.73
2022-08-11T15:49:21.884Z,25.74
2022-08-11T15:51:54.405Z,25.70
2022-08-11T15:54:26.516Z,25.77
2022-08-11T15:56:55.677Z,25.59
2022-08-11T15:59:43.838Z,25.46
2022-08-11T16:02:32.403Z,25.64
2022-08-11T16:05:04.311Z,25.72
2022-08-11T16:07:39.804Z,25.69
2022-08-11T16:10:15.605Z,25.52
2022-08-11T16:13:20.468Z,25.41
2022-08-11T16:16:08.619Z,25.32
2022-08-11T16:18:43.824Z,25.21
2022-08-11T16:21:26.154Z,25.30
2022-08-11T16:24:05.783Z,25.04
2022-08-11T16:27:07.749Z,25.35
2022-08-11T16:29:23.808Z,25.60
2022-08-11T16:32:06.680Z,25.64
2022-08-11T16:34:54.954Z,25.66
2022-08-11T16:37:42.349Z,25.67
2022-08-11T16:40:12.023Z,25.69
2022-08-11T16:43:08.712Z,25.57
2022-08-11T16:45:58.300Z,25.69
2022-08-11T16:48:35.081Z,25.61
2022-08-11T16:51:06.077Z,25.66
2022-08-11T16:53:45.991Z,25.67
2022-08-11T16:56:28.446Z,25.69
2022-08-11T16:59:16.557Z,25.69
2022-08-11T17:01:51.853Z,25.69
2022-08-11T17:04:49.098Z,25.71
2022-08-11T17:07:41.736Z,25.76
2022-08-11T17:10:51.310Z,25.74
2022-08-11T17:13:30.724Z,25.71
2022-08-11T17:16:08.534Z,25.67
2022-08-11T17:18:47.127Z,25.66
2022-08-11T17:21:21.217Z,25.67
2022-08-11T17:23:52.398Z,25.67
2022-08-11T17:26:26.560Z,25.67
2022-08-11T17:28:58.861Z,25.72
2022-08-11T17:31:45.316Z,25.68
2022-08-11T17:34:32.228Z,25.65
2022-08-11T17:37:01.223Z,25.66
2022-08-11T17:39:31.958Z,25.67
2022-08-11T17:42:19.660Z,25.70
2022-08-11T17:45:05.683Z,25.69
2022-08-11T17:47:51.817Z,25.68
2022-08-11T17:50:20.681Z,25.70
2022-08-11T17:53:06.808Z,25.73
2022-08-11T17:55:54.056Z,25.78
2022-08-11T17:58:41.750Z,25.80
2022-08-11T18:01:11.115Z,25.75
2022-08-11T18:03:40.860Z,25.73
2022-08-11T18:06:12.602Z,25.60
2022-08-11T18:09:02.224Z,25.54
2022-08-11T18:12:10.047Z,25.43
2022-08-11T18:14:56.926Z,25.41
2022-08-11T18:17:43.084Z,25.47
2022-08-11T18:20:29.502Z,25.25
2022-08-11T18:23:15.321Z,25.23
2022-08-11T18:26:07.054Z,25.34
2022-08-11T18:28:58.298Z,25.32
2022-08-11T18:31:46.113Z,25.26
2022-08-11T18:34:34.732Z,25.23
2022-08-11T18:37:25.941Z,25.38
2022-08-11T18:40:16.430Z,25.34
2022-08-11T18:43:03.720Z,25.27
2022-08-11T18:46:07.035Z,25.40
2022-08-11T18:48:56.444Z,25.34
2022-08-11T18:51:43.104Z,25.25
2022-08-11T18:54:30.670Z,25.18
2022-08-11T18:57:20.346Z,25.12
2022-08-11T19:00:06.738Z,25.40
2022-08-11T19:02:54.290Z,25.50
2022-08-11T19:06:32.175Z,25.63
2022-08-11T19:08:49.975Z,25.67
2022-08-11T19:11:42.529Z,25.66
2022-08-11T19:14:29.968Z,25.63
2022-08-11T19:17:44.555Z,25.67
2022-08-11T19:20:25.542Z,25.66
2022-08-11T19:23:14.068Z,25.64
2022-08-11T19:26:00.753Z,25.66
2022-08-11T19:28:46.883Z,25.66
2022-08-11T19:31:32.980Z,25.67
2022-08-11T19:34:19.935Z,25.68
2022-08-11T19:37:06.844Z,25.65
2022-08-11T19:39:54.814Z,25.63
2022-08-11T19:42:41.423Z,25.64
2022-08-11T19:45:28.230Z,25.63
2022-08-11T19:48:31.246Z,25.61
2022-08-11T19:51:18.773Z,25.61
2022-08-11T19:54:05.678Z,25.59
2022-08-11T19:56:53.807Z,25.59
2022-08-11T19:59:41.931Z,25.59
2022-08-11T20:02:28.650Z,25.59
2022-08-11T20:05:14.978Z,25.54
2022-08-11T20:08:08.666Z,25.56
2022-08-11T20:11:00.682Z,25.60
2022-08-11T20:13:48.199Z,25.55
2022-08-11T20:16:38.065Z,25.57
2022-08-11T20:19:26.172Z,25.53
2022-08-11T20:22:30.761Z,25.53
2022-08-11T20:25:17.369Z,25.54
2022-08-11T20:28:04.460Z,25.52
2022-08-11T20:30:52.010Z,25.49
2022-08-11T20:33:38.399Z,25.52
2022-08-11T20:36:25.430Z,25.53
2022-08-11T20:39:11.930Z,25.55
2022-08-11T20:41:59.564Z,25.54
2022-08-11T20:44:45.854Z,25.54
2022-08-11T20:47:56.529Z,25.55
2022-08-11T20:50:41.561Z,25.55
2022-08-11T20:53:35.976Z,25.54
2022-08-11T20:56:38.799Z,25.53
2022-08-11T20:59:26.173Z,25.54
2022-08-11T21:02:12.671Z,25.56
2022-08-11T21:05:01.026Z,25.55
2022-08-11T21:07:57.009Z,25.54
2022-08-11T21:10:51.277Z,25.54
2022-08-11T21:13:38.213Z,25.54
2022-08-11T21:16:27.326Z,25.53
2022-08-11T21:19:59.825Z,25.54
2022-08-11T21:22:31.010Z,25.54
2022-08-11T21:25:17.142Z,25.53
2022-08-11T21:28:04.166Z,25.53
2022-08-11T21:30:50.081Z,25.53
2022-08-11T21:33:36.137Z,25.54
2022-08-11T21:36:22.768Z,25.54
2022-08-11T21:39:10.120Z,25.53
2022-08-11T21:41:56.252Z,25.55
2022-08-11T21:44:42.726Z,25.54
2022-08-11T21:47:43.525Z,25.54
2022-08-11T21:50:30.644Z,25.53
2022-08-11T21:53:17.187Z,25.54
2022-08-11T21:56:04.658Z,25.53
2022-08-11T21:58:50.582Z,25.53
2022-08-11T22:01:37.245Z,25.53
2022-08-11T22:04:23.417Z,25.56
2022-08-11T22:07:10.094Z,25.60
2022-08-11T22:09:56.582Z,25.62
2022-08-11T22:12:45.172Z,25.63
2022-08-11T22:15:32.039Z,25.65
2022-08-11T22:18:19.664Z,25.64
2022-08-11T22:21:05.552Z,25.65
2022-08-11T22:23:52.056Z,25.65
2022-08-11T22:26:41.235Z,25.64
2022-08-11T22:29:49.937Z,25.66
2022-08-11T22:32:34.843Z,25.66
2022-08-11T22:35:21.514Z,25.67
2022-08-11T22:38:07.529Z,25.67
2022-08-11T22:40:53.617Z,25.68
2022-08-11T22:43:39.497Z,25.69
2022-08-11T22:46:27.023Z,25.69
2022-08-11T22:49:12.926Z,25.70
2022-08-11T22:51:59.063Z,25.70
2022-08-11T22:54:45.230Z,25.71
2022-08-11T22:57:31.107Z,25.71
2022-08-11T23:00:17.099Z,25.71
2022-08-11T23:03:04.810Z,25.72
2022-08-11T23:05:50.913Z,25.72
2022-08-11T23:08:36.927Z,25.70
2022-08-11T23:11:23.123Z,25.70
2022-08-11T23:14:08.952Z,25.69
2022-08-11T23:16:54.919Z,25.68
2022-08-11T23:20:08.598Z,25.68
2022-08-11T23:22:50.842Z,25.69
2022-08-11T23:25:36.817Z,25.68
2022-08-11T23:28:23.150Z,25.69
2022-08-11T23:31:09.723Z,25.68
2022-08-11T23:33:56.301Z,25.68
2022-08-11T23:36:46.969Z,25.69
2022-08-11T23:39:34.205Z,25.68
2022-08-11T23:42:21.244Z,25.69
2022-08-11T23:45:09.692Z,25.67
2022-08-11T23:47:56.984Z,25.68
2022-08-11T23:50:43.164Z,25.68
2022-08-11T23:53:30.833Z,25.67
2022-08-11T23:56:17.384Z,25.66
2022-08-11T23:59:08.769Z,25.66
